createdAt,value
2019-03-05T00:00:40.036Z,98456.00
2019-03-05T00:03:09.979Z,98431.00
2019-03-05T00:05:39.831Z,98436.00
2019-03-05T00:08:09.467Z,98444.00
2019-03-05T00:10:39.205Z,98433.00
2019-03-05T00:13:08.869Z,98454.00
2019-03-05T00:15:38.606Z,98451.00
2019-03-05T00:18:08.299Z,98443.00
2019-03-05T00:20:38.031Z,98445.00
2019-03-05T00:23:08.513Z,98455.00
2019-03-05T00:25:39.994Z,98448.00
2019-03-05T00:28:22.905Z,98446.00
2019-03-05T00:31:15.154Z,98443.00
2019-03-05T00:33:57.839Z,98450.00
2019-03-05T00:36:43.732Z,98450.00
2019-03-05T00:39:29.857Z,98444.00
2019-03-05T00:42:57.368Z,98440.00
2019-03-05T00:46:07.972Z,98434.00
2019-03-05T00:49:03.182Z,98450.00
2019-03-05T00:51:53.902Z,98445.00
2019-03-05T00:54:42.692Z,98444.00
2019-03-05T00:57:31.567Z,98380.00
2019-03-05T01:00:27.684Z,98447.00
2019-03-05T01:03:04.535Z,98434.00
2019-03-05T01:05:50.295Z,98439.00
2019-03-05T01:08:20.018Z,98442.00
2019-03-05T01:10:51.964Z,98443.00
2019-03-05T01:13:21.802Z,98450.00
2019-03-05T01:15:51.829Z,98443.00
2019-03-05T01:18:21.484Z,98443.00
2019-03-05T01:21:00.023Z,98453.00
2019-03-05T01:23:29.672Z,98444.00
2019-03-05T01:25:59.442Z,98460.00
2019-03-05T01:28:29.591Z,98461.00
2019-03-05T01:31:17.185Z,98459.00
2019-03-05T01:34:00.817Z,98455.00
2019-03-05T01:36:32.118Z,98460.00
2019-03-05T01:39:09.036Z,98453.00
2019-03-05T01:41:38.812Z,98448.00
2019-03-05T01:44:08.468Z,98452.00
2019-03-05T01:46:38.138Z,98446.00
2019-03-05T01:49:08.947Z,98452.00
2019-03-05T01:51:38.599Z,98443.00
2019-03-05T01:54:08.308Z,98452.00
2019-03-05T01:56:37.965Z,98463.00
2019-03-05T01:59:07.639Z,98460.00
2019-03-05T02:01:37.447Z,98459.00
2019-03-05T02:04:07.425Z,98457.00
2019-03-05T02:06:38.202Z,98455.00
2019-03-05T02:09:11.143Z,98445.00
2019-03-05T02:11:40.907Z,98451.00
2019-03-05T02:14:10.679Z,98441.00
2019-03-05T02:16:40.639Z,98451.00
2019-03-05T02:19:37.887Z,98446.00
2019-03-05T02:22:18.087Z,98449.00
2019-03-05T02:25:04.211Z,98442.00
2019-03-05T02:28:16.002Z,98454.00
2019-03-05T02:31:19.905Z,98445.00
2019-03-05T02:33:59.714Z,98434.00
2019-03-05T02:36:48.063Z,98440.00
2019-03-05T02:39:41.282Z,98429.00
2019-03-05T02:42:35.871Z,98436.00
2019-03-05T02:45:31.644Z,98437.00
2019-03-05T02:48:31.721Z,98442.00
2019-03-05T02:51:20.269Z,98435.00
2019-03-05T02:54:12.155Z,98442.00
2019-03-05T02:57:12.883Z,98438.00
2019-03-05T02:59:42.540Z,98441.00
2019-03-05T03:02:14.240Z,98447.00
2019-03-05T03:05:02.380Z,98442.00
2019-03-05T03:07:32.398Z,98444.00
2019-03-05T03:10:15.240Z,98442.00
2019-03-05T03:12:45.087Z,98426.00
2019-03-05T03:15:37.129Z,98417.00
2019-03-05T03:18:07.997Z,98415.00
2019-03-05T03:20:37.749Z,98435.00
2019-03-05T03:23:08.027Z,98427.00
2019-03-05T03:25:37.685Z,98439.00
2019-03-05T03:28:07.337Z,98449.00
2019-03-05T03:30:37.563Z,98451.00
2019-03-05T03:33:07.241Z,98461.00
2019-03-05T03:35:36.975Z,98452.00
2019-03-05T03:38:06.647Z,98459.00
2019-03-05T03:40:36.099Z,98449.00
2019-03-05T03:43:06.055Z,98449.00
2019-03-05T03:45:35.541Z,98447.00
2019-03-05T03:48:05.215Z,98455.00
2019-03-05T03:50:34.849Z,98450.00
2019-03-05T03:53:04.506Z,98447.00
2019-03-05T03:55:34.250Z,98451.00
2019-03-05T03:58:05.973Z,98458.00
2019-03-05T04:00:37.317Z,98449.00
2019-03-05T04:03:08.537Z,98451.00
2019-03-05T04:05:38.178Z,98451.00
2019-03-05T04:08:10.458Z,98455.00
2019-03-05T04:10:40.718Z,98458.00
2019-03-05T04:13:10.403Z,98447.00
2019-03-05T04:15:40.247Z,98458.00
2019-03-05T04:18:09.898Z,98458.00
2019-03-05T04:20:41.199Z,98454.00
2019-03-05T04:23:11.870Z,98448.00
2019-03-05T04:25:41.552Z,98440.00
2019-03-05T04:28:11.807Z,98455.00
2019-03-05T04:30:41.565Z,98447.00
2019-03-05T04:33:11.411Z,98461.00
2019-03-05T04:35:41.152Z,98458.00
2019-03-05T04:38:10.829Z,98446.00
2019-03-05T04:40:40.479Z,98458.00
2019-03-05T04:43:10.125Z,98471.00
2019-03-05T04:45:42.440Z,98474.00
2019-03-05T04:48:12.100Z,98479.00
2019-03-05T04:50:57.280Z,98486.00
2019-03-05T04:53:26.920Z,98490.00
2019-03-05T04:55:56.574Z,98483.00
2019-03-05T04:58:26.243Z,98490.00
2019-03-05T05:00:55.970Z,98487.00
2019-03-05T05:03:25.618Z,98478.00
2019-03-05T05:08:31.515Z,98483.00
2019-03-05T05:11:01.177Z,98469.00
2019-03-05T05:13:30.826Z,98477.00
2019-03-05T05:16:00.490Z,98479.00
2019-03-05T05:18:30.176Z,98467.00
2019-03-05T05:20:59.816Z,98474.00
2019-03-05T05:23:29.465Z,98470.00
2019-03-05T05:25:59.830Z,98469.00
2019-03-05T05:28:30.667Z,98470.00
2019-03-05T05:31:00.627Z,98477.00
2019-03-05T05:33:30.298Z,98466.00
2019-03-05T05:35:59.966Z,98486.00
2019-03-05T05:38:29.635Z,98481.00
2019-03-05T05:41:00.760Z,98490.00
2019-03-05T05:43:38.565Z,98483.00
2019-03-05T05:46:13.976Z,98486.00
2019-03-05T05:48:43.646Z,98489.00
2019-03-05T05:51:13.367Z,98485.00
2019-03-05T05:53:43.056Z,98487.00
2019-03-05T05:56:12.881Z,98496.00
2019-03-05T05:58:44.294Z,98490.00
2019-03-05T06:01:15.483Z,98493.00
2019-03-05T06:03:45.750Z,98488.00
2019-03-05T06:06:15.415Z,98495.00
2019-03-05T06:08:45.094Z,98493.00
2019-03-05T06:11:17.494Z,98502.00
2019-03-05T06:13:47.546Z,98497.00
2019-03-05T06:16:17.221Z,98490.00
2019-03-05T06:18:46.933Z,98484.00
2019-03-05T06:21:16.655Z,98488.00
2019-03-05T06:23:46.159Z,98485.00
2019-03-05T06:26:15.823Z,98486.00
2019-03-05T06:28:45.468Z,98496.00
2019-03-05T06:31:15.262Z,98492.00
2019-03-05T06:33:44.905Z,98497.00
2019-03-05T06:36:14.569Z,98495.00
2019-03-05T06:38:44.266Z,98498.00
2019-03-05T06:41:13.920Z,98506.00
2019-03-05T06:43:43.886Z,98519.00
2019-03-05T06:46:15.041Z,98525.00
2019-03-05T06:48:44.691Z,98535.00
2019-03-05T06:51:14.381Z,98531.00
2019-03-05T06:53:48.655Z,98377.00
2019-03-05T06:56:20.833Z,98547.00
2019-03-05T06:58:51.976Z,98546.00
2019-03-05T07:01:22.027Z,98548.00
2019-03-05T07:03:51.684Z,98549.00
2019-03-05T07:06:55.607Z,98554.00
2019-03-05T07:10:05.313Z,98557.00
2019-03-05T07:12:48.376Z,98553.00
2019-03-05T07:15:46.613Z,98554.00
2019-03-05T07:18:23.726Z,98556.00
2019-03-05T07:21:46.301Z,98561.00
2019-03-05T07:24:47.599Z,98553.00
2019-03-05T07:27:23.742Z,98556.00
2019-03-05T07:29:55.623Z,98548.00
2019-03-05T07:32:26.164Z,98557.00
2019-03-05T07:34:55.839Z,98568.00
2019-03-05T07:37:25.508Z,98562.00
2019-03-05T07:39:55.178Z,98550.00
2019-03-05T07:42:24.842Z,98564.00
2019-03-05T07:44:57.133Z,98578.00
2019-03-05T07:47:31.258Z,98575.00
2019-03-05T07:50:00.921Z,98561.00
2019-03-05T07:52:30.662Z,98560.00
2019-03-05T07:55:00.372Z,98564.00
2019-03-05T07:57:30.243Z,98570.00
2019-03-05T07:59:59.929Z,98564.00
2019-03-05T08:02:29.709Z,98564.00
2019-03-05T08:04:59.443Z,98573.00
2019-03-05T08:07:29.130Z,98592.00
2019-03-05T08:10:03.197Z,98577.00
2019-03-05T08:13:02.769Z,98582.00
2019-03-05T08:15:45.543Z,98575.00
2019-03-05T08:18:15.319Z,98593.00
2019-03-05T08:20:45.371Z,98580.00
2019-03-05T08:23:15.012Z,98591.00
2019-03-05T08:25:44.684Z,98592.00
2019-03-05T08:28:14.339Z,98588.00
2019-03-05T08:30:45.512Z,98584.00
2019-03-05T08:33:15.214Z,98599.00
2019-03-05T08:35:45.817Z,98581.00
2019-03-05T08:38:15.463Z,98585.00
2019-03-05T08:40:45.147Z,98591.00
2019-03-05T08:43:14.618Z,98588.00
2019-03-05T08:45:44.586Z,98581.00
2019-03-05T08:48:17.788Z,98590.00
2019-03-05T08:50:48.779Z,98596.00
2019-03-05T08:53:18.491Z,98603.00
2019-03-05T08:55:48.146Z,98591.00
2019-03-05T08:58:19.076Z,98597.00
2019-03-05T09:00:48.807Z,98589.00
2019-03-05T09:03:18.611Z,98617.00
2019-03-05T09:05:50.037Z,98595.00
2019-03-05T09:08:19.909Z,98595.00
2019-03-05T09:10:50.887Z,98594.00
2019-03-05T09:13:31.961Z,98594.00
2019-03-05T09:15:51.945Z,98596.00
2019-03-05T09:18:21.613Z,98613.00
2019-03-05T09:20:51.291Z,98611.00
2019-03-05T09:23:22.774Z,98614.00
2019-03-05T09:25:59.074Z,98614.00
2019-03-05T09:28:28.719Z,98607.00
2019-03-05T09:30:58.474Z,98619.00
2019-03-05T09:33:29.499Z,98614.00
2019-03-05T09:36:01.368Z,98625.00
2019-03-05T09:38:31.069Z,98631.00
2019-03-05T09:41:00.910Z,98634.00
2019-03-05T09:43:30.560Z,98634.00
2019-03-05T09:46:00.229Z,98635.00
2019-03-05T09:48:29.884Z,98648.00
2019-03-05T09:50:59.532Z,98638.00
2019-03-05T09:53:29.219Z,98639.00
2019-03-05T09:55:58.890Z,98646.00
2019-03-05T09:58:28.577Z,98646.00
2019-03-05T10:00:58.328Z,98644.00
2019-03-05T10:03:27.992Z,98635.00
2019-03-05T10:05:57.661Z,98656.00
2019-03-05T10:08:32.365Z,98648.00
2019-03-05T10:10:59.098Z,98647.00
2019-03-05T10:13:29.175Z,98648.00
2019-03-05T10:15:58.859Z,98647.00
2019-03-05T10:18:28.512Z,98637.00
2019-03-05T10:20:58.252Z,98636.00
2019-03-05T10:23:27.947Z,98643.00
2019-03-05T10:25:58.399Z,98643.00
2019-03-05T10:28:29.167Z,98644.00
2019-03-05T10:30:58.950Z,98641.00
2019-03-05T10:33:28.606Z,98634.00
2019-03-05T10:35:58.761Z,98626.00
2019-03-05T10:38:28.429Z,98644.00
2019-03-05T10:41:02.062Z,98643.00
2019-03-05T10:43:32.985Z,98656.00
2019-03-05T10:46:02.685Z,98654.00
2019-03-05T10:48:32.341Z,98648.00
2019-03-05T10:51:02.010Z,98642.00
2019-03-05T10:53:31.734Z,98645.00
2019-03-05T10:56:01.387Z,98684.00
2019-03-05T10:58:34.123Z,98671.00
2019-03-05T11:01:06.153Z,98664.00
2019-03-05T11:03:35.815Z,98652.00
2019-03-05T11:06:08.522Z,98668.00
2019-03-05T11:08:38.192Z,98669.00
2019-03-05T11:11:13.548Z,98664.00
2019-03-05T11:13:39.574Z,98669.00
2019-03-05T11:16:09.643Z,98664.00
2019-03-05T11:18:39.685Z,98673.00
2019-03-05T11:21:09.735Z,98672.00
2019-03-05T11:23:41.095Z,98683.00
2019-03-05T11:26:10.782Z,98676.00
2019-03-05T11:28:40.442Z,98675.00
2019-03-05T11:31:11.105Z,98692.00
2019-03-05T11:33:40.762Z,98676.00
2019-03-05T11:36:10.852Z,98692.00
2019-03-05T11:38:40.632Z,98695.00
2019-03-05T11:41:10.293Z,98682.00
2019-03-05T11:43:40.123Z,98675.00
2019-03-05T11:46:13.634Z,98693.00
2019-03-05T11:48:43.469Z,98696.00
2019-03-05T11:51:13.546Z,98688.00
2019-03-05T11:53:44.425Z,98697.00
2019-03-05T11:56:15.144Z,98690.00
2019-03-05T11:58:46.116Z,98702.00
2019-03-05T12:01:17.433Z,98698.00
2019-03-05T12:03:47.102Z,98704.00
2019-03-05T12:06:16.817Z,98700.00
2019-03-05T12:08:48.836Z,98710.00
2019-03-05T12:11:18.798Z,98716.00
2019-03-05T12:13:48.756Z,98708.00
2019-03-05T12:16:20.073Z,98716.00
2019-03-05T12:18:49.753Z,98721.00
2019-03-05T12:21:19.410Z,98719.00
2019-03-05T12:23:49.089Z,98719.00
2019-03-05T12:26:18.765Z,98718.00
2019-03-05T12:28:48.419Z,98722.00
2019-03-05T12:31:19.754Z,98708.00
2019-03-05T12:33:50.588Z,98719.00
2019-03-05T12:36:20.254Z,98707.00
2019-03-05T12:38:49.951Z,98705.00
2019-03-05T12:41:20.817Z,98717.00
2019-03-05T12:43:51.274Z,98696.00
2019-03-05T12:46:22.169Z,98721.00
2019-03-05T12:48:51.848Z,98723.00
2019-03-05T12:51:21.499Z,98719.00
2019-03-05T12:53:51.182Z,98706.00
2019-03-05T12:56:24.205Z,98705.00
2019-03-05T12:58:55.029Z,98710.00
2019-03-05T13:01:25.003Z,98723.00
2019-03-05T13:03:54.662Z,98696.00
2019-03-05T13:06:24.327Z,98712.00
2019-03-05T13:08:54.036Z,98709.00
2019-03-05T13:11:23.755Z,98712.00
2019-03-05T13:14:05.963Z,98703.00
2019-03-05T13:16:25.411Z,98698.00
2019-03-05T13:18:55.059Z,98697.00
2019-03-05T13:21:26.236Z,98712.00
2019-03-05T13:23:56.008Z,98721.00
2019-03-05T13:26:25.772Z,98708.00
2019-03-05T13:28:55.419Z,98711.00
2019-03-05T13:31:26.229Z,98712.00
2019-03-05T13:34:08.765Z,98702.00
2019-03-05T13:36:39.756Z,98718.00
2019-03-05T13:39:09.541Z,98725.00
2019-03-05T13:41:39.249Z,98719.00
2019-03-05T13:44:13.728Z,98723.00
2019-03-05T13:46:43.407Z,98717.00
2019-03-05T13:49:23.729Z,98732.00
2019-03-05T13:52:01.119Z,98737.00
2019-03-05T13:54:48.338Z,98731.00
2019-03-05T13:57:32.228Z,98733.00
2019-03-05T14:00:02.039Z,98735.00
2019-03-05T14:02:32.491Z,98747.00
2019-03-05T14:05:12.134Z,98733.00
2019-03-05T14:08:33.905Z,98730.00
2019-03-05T14:11:03.612Z,98743.00
2019-03-05T14:13:33.260Z,98747.00
2019-03-05T14:16:03.324Z,98744.00
2019-03-05T14:18:33.003Z,98756.00
2019-03-05T14:21:02.663Z,98737.00
2019-03-05T14:23:32.325Z,98748.00
2019-03-05T14:26:02.704Z,98747.00
2019-03-05T14:28:32.379Z,98735.00
2019-03-05T14:31:02.035Z,98733.00
2019-03-05T14:33:31.803Z,98739.00
2019-03-05T14:36:01.481Z,98733.00
2019-03-05T14:38:33.534Z,98739.00
2019-03-05T14:41:03.303Z,98740.00
2019-03-05T14:43:34.921Z,98729.00
2019-03-05T14:46:04.632Z,98715.00
2019-03-05T14:48:34.611Z,98728.00
2019-03-05T14:51:04.666Z,98727.00
2019-03-05T14:53:34.351Z,98724.00
2019-03-05T14:56:04.025Z,98722.00
2019-03-05T14:58:34.310Z,98710.00
2019-03-05T15:01:05.437Z,98704.00
2019-03-05T15:03:35.321Z,98716.00
2019-03-05T15:06:04.997Z,98698.00
2019-03-05T15:08:34.721Z,98710.00
2019-03-05T15:11:04.480Z,98704.00
2019-03-05T15:13:35.373Z,98701.00
2019-03-05T15:16:05.017Z,98701.00
2019-03-05T15:18:36.161Z,98682.00
2019-03-05T15:21:05.866Z,98686.00
2019-03-05T15:23:35.623Z,98682.00
2019-03-05T15:26:05.619Z,98695.00
2019-03-05T15:28:35.272Z,98676.00
2019-03-05T15:31:05.017Z,98685.00
2019-03-05T15:33:34.725Z,98688.00
2019-03-05T15:36:04.584Z,98701.00
2019-03-05T15:38:34.278Z,98687.00
2019-03-05T15:41:04.042Z,98697.00
2019-03-05T15:43:33.700Z,98694.00
2019-03-05T15:46:03.365Z,98687.00
2019-03-05T15:48:33.082Z,98687.00
2019-03-05T15:51:02.759Z,98693.00
2019-03-05T15:53:32.409Z,98695.00
2019-03-05T15:56:02.102Z,98706.00
2019-03-05T15:58:31.774Z,98685.00
2019-03-05T16:01:05.833Z,98689.00
2019-03-05T16:03:35.518Z,98688.00
2019-03-05T16:06:05.217Z,98694.00
2019-03-05T16:08:35.057Z,98687.00
2019-03-05T16:11:05.033Z,98694.00
2019-03-05T16:13:35.072Z,98682.00
2019-03-05T16:16:04.756Z,98692.00
2019-03-05T16:18:34.453Z,98673.00
2019-03-05T16:21:06.890Z,98678.00
2019-03-05T16:23:36.073Z,98677.00
2019-03-05T16:26:06.832Z,98670.00
2019-03-05T16:28:39.350Z,98679.00
2019-03-05T16:31:18.323Z,98666.00
2019-03-05T16:33:52.585Z,98663.00
2019-03-05T16:36:29.131Z,98663.00
2019-03-05T16:39:10.421Z,98657.00
2019-03-05T16:41:53.294Z,98659.00
2019-03-05T16:44:39.758Z,98656.00
2019-03-05T16:47:26.063Z,98658.00
2019-03-05T16:50:06.505Z,98659.00
2019-03-05T16:52:57.939Z,98651.00
2019-03-05T16:55:41.122Z,98657.00
2019-03-05T16:58:22.385Z,98643.00
2019-03-05T17:01:09.859Z,98637.00
2019-03-05T17:03:42.201Z,98650.00
2019-03-05T17:06:21.391Z,98659.00
2019-03-05T17:09:04.469Z,98646.00
2019-03-05T17:11:38.823Z,98639.00
2019-03-05T17:14:10.273Z,98641.00
2019-03-05T17:16:39.937Z,98642.00
2019-03-05T17:19:11.025Z,98633.00
2019-03-05T17:21:40.725Z,98651.00
2019-03-05T17:24:11.203Z,98646.00
2019-03-05T17:26:40.876Z,98649.00
2019-03-05T17:29:11.573Z,98645.00
2019-03-05T17:31:41.441Z,98650.00
2019-03-05T17:34:11.100Z,98634.00
2019-03-05T17:36:41.177Z,98649.00
2019-03-05T17:39:14.092Z,98645.00
2019-03-05T17:41:43.981Z,98651.00
2019-03-05T17:44:13.652Z,98638.00
2019-03-05T17:46:43.375Z,98643.00
2019-03-05T17:49:13.179Z,98643.00
2019-03-05T17:51:44.408Z,98649.00
2019-03-05T17:54:14.151Z,98651.00
2019-03-05T17:56:43.837Z,98656.00
2019-03-05T17:59:13.574Z,98645.00
2019-03-05T18:01:43.464Z,98650.00
2019-03-05T18:04:13.184Z,98647.00
2019-03-05T18:06:42.851Z,98647.00
2019-03-05T18:09:12.539Z,98646.00
2019-03-05T18:11:42.212Z,98651.00
2019-03-05T18:14:11.888Z,98633.00
2019-03-05T18:16:41.548Z,98647.00
2019-03-05T18:19:11.247Z,98650.00
2019-03-05T18:21:41.448Z,98645.00
2019-03-05T18:24:11.083Z,98655.00
2019-03-05T18:26:40.996Z,98640.00
2019-03-05T18:29:10.674Z,98644.00
2019-03-05T18:31:40.414Z,98647.00
2019-03-05T18:34:10.095Z,98652.00
2019-03-05T18:36:41.263Z,98640.00
2019-03-05T18:39:11.282Z,98630.00
2019-03-05T18:41:41.158Z,98646.00
2019-03-05T18:44:11.737Z,98634.00
2019-03-05T18:46:43.928Z,98635.00
2019-03-05T18:49:13.671Z,98638.00
2019-03-05T18:51:43.326Z,98633.00
2019-03-05T18:54:14.857Z,98625.00
2019-03-05T18:56:44.612Z,98638.00
2019-03-05T18:59:14.278Z,98622.00
2019-03-05T19:01:44.034Z,98621.00
2019-03-05T19:04:15.008Z,98619.00
2019-03-05T19:06:45.070Z,98620.00
2019-03-05T19:09:14.778Z,98624.00
2019-03-05T19:11:45.189Z,98615.00
2019-03-05T19:14:16.496Z,98621.00
2019-03-05T19:16:55.153Z,98620.00
2019-03-05T19:19:25.673Z,98607.00
2019-03-05T19:21:56.880Z,98609.00
2019-03-05T19:24:26.982Z,98617.00
2019-03-05T19:26:59.802Z,98612.00
2019-03-05T19:29:30.323Z,98600.00
2019-03-05T19:32:02.346Z,98597.00
2019-03-05T19:34:33.410Z,98604.00
2019-03-05T19:37:03.087Z,98596.00
2019-03-05T19:39:32.766Z,98594.00
2019-03-05T19:42:03.968Z,98541.00
2019-03-05T19:44:33.679Z,98592.00
2019-03-05T19:47:03.430Z,98580.00
2019-03-05T19:49:33.128Z,98582.00
2019-03-05T19:52:02.791Z,98581.00
2019-03-05T19:54:32.811Z,98583.00
2019-03-05T19:57:02.475Z,98577.00
2019-03-05T19:59:32.138Z,98569.00
2019-03-05T20:02:02.170Z,98566.00
2019-03-05T20:04:34.054Z,98561.00
2019-03-05T20:07:03.985Z,98559.00
2019-03-05T20:09:33.824Z,98548.00
2019-03-05T20:12:03.496Z,98544.00
2019-03-05T20:14:33.158Z,98538.00
2019-03-05T20:17:04.600Z,98550.00
2019-03-05T20:19:35.714Z,98542.00
2019-03-05T20:22:05.395Z,98539.00
2019-03-05T20:24:35.161Z,98534.00
2019-03-05T20:27:04.915Z,98530.00
2019-03-05T20:29:34.685Z,98529.00
2019-03-05T20:32:06.178Z,98524.00
2019-03-05T20:34:35.836Z,98516.00
2019-03-05T20:37:05.613Z,98512.00
2019-03-05T20:39:35.334Z,98504.00
2019-03-05T20:42:05.032Z,98495.00
2019-03-05T20:44:34.707Z,98493.00
2019-03-05T20:47:04.384Z,98492.00
2019-03-05T20:49:34.052Z,98479.00
2019-03-05T20:52:03.788Z,98477.00
2019-03-05T20:54:33.470Z,98483.00
2019-03-05T20:57:03.215Z,98486.00
2019-03-05T20:59:33.217Z,98479.00
2019-03-05T21:02:03.228Z,98474.00
2019-03-05T21:04:33.018Z,98469.00
2019-03-05T21:07:02.750Z,98474.00
2019-03-05T21:09:34.046Z,98464.00
2019-03-05T21:12:03.876Z,98466.00
2019-03-05T21:14:33.548Z,98466.00
2019-03-05T21:17:04.691Z,98462.00
2019-03-05T21:19:34.410Z,98456.00
2019-03-05T21:22:04.160Z,98450.00
2019-03-05T21:24:33.901Z,98453.00
2019-03-05T21:27:03.585Z,98448.00
2019-03-05T21:29:34.705Z,98448.00
2019-03-05T21:32:04.411Z,98451.00
2019-03-05T21:34:38.186Z,98443.00
2019-03-05T21:37:08.203Z,98442.00
2019-03-05T21:39:37.880Z,98440.00
2019-03-05T21:42:11.419Z,98448.00
2019-03-05T21:44:41.386Z,98421.00
2019-03-05T21:47:11.170Z,98438.00
2019-03-05T21:49:40.886Z,98433.00
2019-03-05T21:52:10.602Z,98428.00
2019-03-05T21:54:40.271Z,98424.00
2019-03-05T21:57:09.947Z,98424.00
2019-03-05T21:59:39.640Z,98417.00
2019-03-05T22:02:09.516Z,98427.00
2019-03-05T22:04:39.254Z,98419.00
2019-03-05T22:07:08.933Z,98410.00
2019-03-05T22:09:38.608Z,98403.00
2019-03-05T22:12:08.261Z,98391.00
2019-03-05T22:14:38.162Z,98393.00
2019-03-05T22:17:07.816Z,98384.00
2019-03-05T22:19:39.393Z,98379.00
2019-03-05T22:22:09.222Z,98376.00
2019-03-05T22:24:39.139Z,98362.00
2019-03-05T22:27:08.995Z,98354.00
2019-03-05T22:29:38.735Z,98341.00
2019-03-05T22:32:08.489Z,98346.00
2019-03-05T22:34:38.171Z,98335.00
2019-03-05T22:37:07.870Z,98322.00
2019-03-05T22:39:37.605Z,98313.00
2019-03-05T22:42:07.274Z,98309.00
2019-03-05T22:44:36.970Z,98305.00
2019-03-05T22:47:06.640Z,98290.00
2019-03-05T22:49:36.293Z,98278.00
2019-03-05T22:52:06.879Z,98274.00
2019-03-05T22:54:39.107Z,98252.00
2019-03-05T22:57:08.798Z,98262.00
2019-03-05T22:59:38.734Z,98255.00
2019-03-05T23:02:09.403Z,98241.00
2019-03-05T23:04:39.066Z,98234.00
2019-03-05T23:07:09.104Z,98233.00
2019-03-05T23:09:38.880Z,98227.00
2019-03-05T23:12:08.928Z,98231.00
2019-03-05T23:14:38.712Z,98229.00
2019-03-05T23:17:09.444Z,98221.00
2019-03-05T23:19:39.086Z,98216.00
2019-03-05T23:22:08.974Z,98136.00
2019-03-05T23:24:38.644Z,98210.00
2019-03-05T23:27:08.806Z,98196.00
2019-03-05T23:29:40.481Z,98198.00
2019-03-05T23:32:10.120Z,98188.00
2019-03-05T23:34:39.774Z,98179.00
2019-03-05T23:37:09.451Z,98179.00
2019-03-05T23:39:39.327Z,98171.00
2019-03-05T23:42:09.487Z,98164.00
2019-03-05T23:44:40.881Z,98156.00
2019-03-05T23:47:10.845Z,98152.00
2019-03-05T23:49:40.813Z,98141.00
2019-03-05T23:52:10.585Z,98149.00
2019-03-05T23:54:40.239Z,98129.00
2019-03-05T23:57:09.914Z,98138.00
2019-03-05T23:59:39.580Z,98112.00
